Terminal Aerodrome Forecast
Issued by NWS

Home | Current Version | Previous Version | Text Only | Print | Product List | Glossary On
Versions: 1 2 3 4 5 6 7 8 9 10 11 12 13 14 15 16 17 18 19 20 21
868
FTUS42 KTBW 042018 AAA
TAFLAL
TAF AMD
KLAL 042018Z 0420/0518 15009KT P6SM VCTS SCT010CB BKN030 OVC100
      TEMPO 0421/0423 VRB15G25KT 2SM +TSRA BKN010CB
     FM042300 21009KT P6SM VCSH SCT010 BKN030 OVC100
     FM050100 30010KT P6SM SCT025 BKN060
     FM050600 30007KT P6SM FEW025 SCT060
     FM051400 30012KT P6SM SCT060=

USA.gov is the U.S. government's official web portal to all federal, state and local government web resources and services.